Antioch, South Carolina
Current Conditions -  °F | °C
As of 9:55 PM on Friday 31 Oct 2014 (Local Time) from KCDN Reporting Station
Broken Clouds Broken Clouds  
Wind Chill: 54°   Ceiling: 4900
Heat Index: 54°   Visibility: 10mi
Dew Point: 48°   Wind: 5mph
Humidity: 82%   Direction: 310°NW
Pressure: 29.79"   Gusts: NA
Location:  34.2974°N, 80.6089°W
Report Text: KCDN 010155Z AUTO 31004KT 10SM BKN049 BKN060 12/09 A2979 RMK AO2 TSNO
Loading
Personal Weather Stations






























Interactive Weather Map
Tropical Storm Tracking
New forecast layout! Learn more

10-Day Weather Forecast

Advertisements
Track Severe Weather on mobile